createdAt,value
2022-10-23T00:01:51.122Z,11.90
2022-10-23T00:04:21.828Z,11.90
2022-10-23T00:06:51.204Z,12.00
2022-10-23T00:09:22.137Z,12.00
2022-10-23T00:11:51.593Z,11.90
2022-10-23T00:14:23.955Z,11.90
2022-10-23T00:16:52.666Z,11.80
2022-10-23T00:19:21.468Z,11.70
2022-10-23T00:21:50.061Z,11.60
2022-10-23T00:24:18.632Z,11.40
2022-10-23T00:26:47.060Z,11.40
2022-10-23T00:29:15.461Z,11.40
2022-10-23T00:31:45.480Z,11.50
2022-10-23T00:34:13.862Z,11.40
2022-10-23T00:36:42.506Z,11.50
2022-10-23T00:39:10.851Z,11.70
2022-10-23T00:41:46.286Z,11.70
2022-10-23T00:44:48.186Z,11.70
2022-10-23T00:47:19.440Z,11.60
2022-10-23T00:49:47.998Z,11.60
2022-10-23T00:52:16.746Z,11.60
2022-10-23T00:54:47.385Z,11.70
2022-10-23T00:57:17.186Z,11.70
2022-10-23T00:59:46.748Z,11.70
2022-10-23T01:02:16.085Z,11.80
2022-10-23T01:04:46.153Z,11.90
2022-10-23T01:07:21.383Z,11.90
2022-10-23T01:10:00.437Z,12.00
2022-10-23T01:12:39.833Z,12.10
2022-10-23T01:15:15.097Z,12.30
2022-10-23T01:17:46.336Z,12.30
2022-10-23T01:20:31.219Z,12.40
2022-10-23T01:23:33.638Z,12.40
2022-10-23T01:26:19.529Z,12.40
2022-10-23T01:28:54.714Z,12.40
2022-10-23T01:31:32.225Z,12.40
2022-10-23T01:34:07.433Z,12.50
2022-10-23T01:36:38.562Z,12.50
2022-10-23T01:39:10.890Z,12.60
2022-10-23T01:41:45.644Z,12.70
2022-10-23T01:44:25.343Z,12.70
2022-10-23T01:46:56.161Z,12.70
2022-10-23T01:49:25.766Z,12.60
2022-10-23T01:52:00.758Z,12.70
2022-10-23T01:54:32.992Z,12.80
2022-10-23T01:57:03.178Z,12.80
2022-10-23T01:59:39.773Z,12.80
2022-10-23T02:02:13.117Z,12.80
2022-10-23T02:04:49.834Z,12.80
2022-10-23T02:07:18.645Z,12.80
2022-10-23T02:09:51.326Z,12.80
2022-10-23T02:12:30.482Z,12.80
2022-10-23T02:15:06.794Z,12.80
2022-10-23T02:17:47.377Z,12.70
2022-10-23T02:20:22.830Z,12.80
2022-10-23T02:22:59.777Z,12.80
2022-10-23T02:25:34.166Z,12.80
2022-10-23T02:28:08.337Z,12.90
2022-10-23T02:30:48.473Z,12.90
2022-10-23T02:33:18.113Z,12.90
2022-10-23T02:35:48.103Z,13.00
2022-10-23T02:38:32.039Z,13.00
2022-10-23T02:41:08.805Z,13.00
2022-10-23T02:43:47.423Z,13.00
2022-10-23T02:46:26.431Z,13.00
2022-10-23T02:49:05.858Z,13.00
2022-10-23T02:51:42.510Z,12.90
2022-10-23T02:54:20.781Z,12.80
2022-10-23T02:56:58.802Z,12.80
2022-10-23T02:59:33.082Z,12.80
2022-10-23T03:02:07.332Z,12.70
2022-10-23T03:04:40.537Z,12.60
2022-10-23T03:07:13.121Z,12.50
2022-10-23T03:09:42.406Z,12.40
2022-10-23T03:12:10.957Z,12.40
2022-10-23T03:14:39.366Z,12.30
2022-10-23T03:17:33.491Z,12.20
2022-10-23T03:20:02.370Z,12.20
2022-10-23T03:22:31.911Z,12.20
2022-10-23T03:25:01.683Z,12.10
2022-10-23T03:27:32.203Z,12.10
2022-10-23T03:30:06.540Z,12.20
2022-10-23T03:32:38.442Z,12.20
2022-10-23T03:35:08.291Z,12.30
2022-10-23T03:37:36.789Z,12.30
2022-10-23T03:40:06.421Z,12.30
2022-10-23T03:42:36.551Z,12.20
2022-10-23T03:45:05.518Z,12.20
2022-10-23T03:47:35.550Z,12.20
2022-10-23T03:50:06.412Z,12.30
2022-10-23T03:52:36.019Z,12.30
2022-10-23T03:55:05.561Z,12.20
2022-10-23T03:57:34.102Z,12.10
2022-10-23T04:00:02.609Z,12.10
2022-10-23T04:02:34.503Z,12.00
2022-10-23T04:05:02.930Z,11.90
2022-10-23T04:07:32.806Z,11.90
2022-10-23T04:10:03.899Z,11.90
2022-10-23T04:12:32.457Z,11.80
2022-10-23T04:15:00.965Z,11.80
2022-10-23T04:17:29.561Z,11.80
2022-10-23T04:19:58.138Z,11.80
2022-10-23T04:22:28.431Z,11.80
2022-10-23T04:24:58.693Z,11.80
2022-10-23T04:27:27.270Z,11.80
2022-10-23T04:29:59.094Z,11.90
2022-10-23T04:32:28.416Z,12.10
2022-10-23T04:34:57.123Z,12.10
2022-10-23T04:37:25.699Z,12.10
2022-10-23T04:39:54.102Z,12.20
2022-10-23T04:42:24.302Z,12.40
2022-10-23T04:44:52.921Z,12.50
2022-10-23T04:47:21.296Z,12.60
2022-10-23T04:49:59.169Z,12.70
2022-10-23T04:52:57.350Z,12.80
2022-10-23T04:55:50.594Z,12.70
2022-10-23T04:58:41.689Z,12.70
2022-10-23T05:01:11.404Z,12.80
2022-10-23T05:03:40.330Z,12.90
2022-10-23T05:06:09.083Z,13.00
2022-10-23T05:09:09.874Z,13.00
2022-10-23T05:11:52.367Z,13.00
2022-10-23T05:14:23.081Z,13.00
2022-10-23T05:16:57.040Z,13.10
2022-10-23T05:19:29.165Z,13.20
2022-10-23T05:21:58.366Z,13.20
2022-10-23T05:24:31.591Z,13.30
2022-10-23T05:27:03.206Z,13.30
2022-10-23T05:29:35.092Z,13.30
2022-10-23T05:32:06.357Z,13.40
2022-10-23T05:34:38.583Z,13.40
2022-10-23T05:37:09.377Z,13.40
2022-10-23T05:39:40.597Z,13.40
2022-10-23T05:42:13.985Z,13.30
2022-10-23T05:44:44.894Z,13.40
2022-10-23T05:47:25.518Z,13.40
2022-10-23T05:50:01.636Z,13.40
2022-10-23T05:52:49.238Z,13.50
2022-10-23T05:55:40.665Z,13.60
2022-10-23T05:58:35.908Z,13.60
2022-10-23T06:01:18.587Z,13.50
2022-10-23T06:04:07.252Z,13.50
2022-10-23T06:06:54.352Z,13.50
2022-10-23T06:09:23.118Z,13.50
2022-10-23T06:11:56.475Z,13.60
2022-10-23T06:14:25.354Z,13.50
2022-10-23T06:16:56.685Z,13.40
2022-10-23T06:19:26.749Z,13.40
2022-10-23T06:21:58.296Z,13.50
2022-10-23T06:24:41.013Z,13.60
2022-10-23T06:27:13.598Z,13.60
2022-10-23T06:29:47.666Z,13.60
2022-10-23T06:32:18.537Z,13.60
2022-10-23T06:34:57.341Z,13.60
2022-10-23T06:37:26.561Z,13.60
2022-10-23T06:40:01.619Z,13.60
2022-10-23T06:42:43.633Z,13.70
2022-10-23T06:45:44.358Z,13.70
2022-10-23T06:48:17.486Z,13.70
2022-10-23T06:50:46.005Z,13.70
2022-10-23T06:53:19.216Z,13.70
2022-10-23T06:55:55.479Z,13.80
2022-10-23T06:58:26.135Z,13.90
2022-10-23T07:01:10.138Z,14.00
2022-10-23T07:03:40.334Z,14.10
2022-10-23T07:06:12.307Z,14.20
2022-10-23T07:08:40.919Z,14.30
2022-10-23T07:11:29.340Z,14.40
2022-10-23T07:13:59.076Z,14.40
2022-10-23T07:16:27.609Z,14.40
2022-10-23T07:19:01.236Z,14.40
2022-10-23T07:21:31.151Z,14.60
2022-10-23T07:24:16.664Z,14.70
2022-10-23T07:26:46.154Z,14.80
2022-10-23T07:29:15.910Z,14.90
2022-10-23T07:31:45.156Z,14.90
2022-10-23T07:34:33.689Z,15.00
2022-10-23T07:37:26.904Z,15.10
2022-10-23T07:39:55.323Z,15.20
2022-10-23T07:42:25.023Z,15.20
2022-10-23T07:44:53.677Z,15.40
2022-10-23T07:47:23.281Z,15.60
2022-10-23T07:49:54.833Z,15.60
2022-10-23T07:52:23.220Z,15.80
2022-10-23T07:55:12.098Z,15.90
2022-10-23T07:57:47.670Z,16.10
2022-10-23T08:00:42.594Z,16.20
2022-10-23T08:03:19.029Z,16.30
2022-10-23T08:05:50.880Z,16.50
2022-10-23T08:08:19.273Z,16.60
2022-10-23T08:11:00.742Z,16.80
2022-10-23T08:13:34.486Z,16.90
2022-10-23T08:16:06.766Z,17.00
2022-10-23T08:18:53.959Z,17.10
2022-10-23T08:21:24.247Z,17.30
2022-10-23T08:23:55.775Z,17.40
2022-10-23T08:26:25.010Z,17.50
2022-10-23T08:28:53.777Z,17.60
2022-10-23T08:31:29.954Z,17.80
2022-10-23T08:34:19.301Z,17.90
2022-10-23T08:36:53.216Z,18.00
2022-10-23T08:39:21.804Z,18.20
2022-10-23T08:42:03.894Z,18.30
2022-10-23T08:44:36.753Z,18.50
2022-10-23T08:47:09.733Z,18.60
2022-10-23T08:50:01.930Z,18.70
2022-10-23T08:52:38.535Z,18.80
2022-10-23T08:55:17.090Z,18.80
2022-10-23T08:57:52.623Z,18.80
2022-10-23T09:00:21.605Z,18.80
2022-10-23T09:02:52.381Z,18.80
2022-10-23T09:05:26.414Z,18.80
2022-10-23T09:08:13.915Z,18.80
2022-10-23T09:11:01.811Z,18.80
2022-10-23T09:13:59.592Z,18.90
2022-10-23T09:16:42.850Z,18.90
2022-10-23T09:19:16.901Z,18.90
2022-10-23T09:21:47.606Z,18.90
2022-10-23T09:24:19.456Z,18.90
2022-10-23T09:26:49.929Z,19.00
2022-10-23T09:29:24.713Z,19.10
2022-10-23T09:31:55.309Z,19.10
2022-10-23T09:34:25.474Z,19.20
2022-10-23T09:39:29.886Z,19.30
2022-10-23T09:41:59.446Z,19.40
2022-10-23T09:44:29.417Z,19.60
2022-10-23T09:47:02.006Z,19.70
2022-10-23T09:49:32.601Z,19.90
2022-10-23T09:52:04.281Z,20.10
2022-10-23T09:54:38.195Z,20.20
2022-10-23T09:57:21.220Z,20.20
2022-10-23T09:59:53.642Z,20.40
2022-10-23T10:02:29.440Z,20.50
2022-10-23T10:05:27.353Z,20.50
2022-10-23T10:08:01.748Z,20.50
2022-10-23T10:10:40.683Z,20.40
2022-10-23T10:13:26.794Z,20.40
2022-10-23T10:16:00.025Z,20.40
2022-10-23T10:18:37.863Z,20.30
2022-10-23T10:21:16.455Z,20.30
2022-10-23T10:23:50.511Z,20.40
2022-10-23T10:26:36.083Z,20.60
2022-10-23T10:29:15.511Z,20.60
2022-10-23T10:31:57.603Z,20.70
2022-10-23T10:34:31.596Z,20.80
2022-10-23T10:37:06.681Z,20.80
2022-10-23T10:39:47.140Z,20.90
2022-10-23T10:42:34.762Z,20.90
2022-10-23T10:45:15.199Z,21.00
2022-10-23T10:47:53.951Z,21.00
2022-10-23T10:50:32.086Z,20.90
2022-10-23T10:53:25.285Z,21.00
2022-10-23T10:55:55.880Z,21.20
2022-10-23T10:58:38.535Z,21.40
2022-10-23T11:01:15.919Z,21.60
2022-10-23T11:03:50.058Z,21.60
2022-10-23T11:06:23.055Z,21.60
2022-10-23T11:08:58.216Z,21.50
2022-10-23T11:11:41.580Z,21.50
2022-10-23T11:14:18.344Z,21.40
2022-10-23T11:16:49.791Z,21.30
2022-10-23T11:19:24.724Z,21.20
2022-10-23T11:21:59.557Z,21.00
2022-10-23T11:25:05.279Z,21.00
2022-10-23T11:27:48.458Z,21.10
2022-10-23T11:30:26.107Z,21.20
2022-10-23T11:33:37.075Z,21.20
2022-10-23T11:36:15.110Z,21.20
2022-10-23T11:38:46.203Z,21.10
2022-10-23T11:41:26.560Z,21.00
2022-10-23T11:44:01.652Z,20.80
2022-10-23T11:46:35.368Z,20.80
2022-10-23T11:49:06.595Z,20.70
2022-10-23T11:51:37.071Z,20.70
2022-10-23T11:54:24.741Z,20.60
2022-10-23T11:56:57.243Z,20.50
2022-10-23T11:59:30.526Z,20.50
2022-10-23T12:02:03.504Z,20.60
2022-10-23T12:04:41.985Z,20.70
2022-10-23T12:07:22.865Z,21.00
2022-10-23T12:09:57.183Z,21.50
2022-10-23T12:12:31.755Z,22.00
2022-10-23T12:15:10.853Z,22.20
2022-10-23T12:17:42.651Z,22.50
2022-10-23T12:20:30.826Z,23.00
2022-10-23T12:23:38.395Z,23.10
2022-10-23T12:26:29.007Z,23.50
2022-10-23T12:29:05.233Z,23.60
2022-10-23T12:31:47.142Z,23.60
2022-10-23T12:34:31.173Z,23.60
2022-10-23T12:37:15.207Z,23.60
2022-10-23T12:39:43.825Z,23.00
2022-10-23T12:42:17.528Z,22.50
2022-10-23T12:44:45.957Z,22.30
2022-10-23T12:47:20.174Z,22.40
2022-10-23T12:49:52.685Z,22.50
2022-10-23T12:52:58.570Z,22.70
2022-10-23T13:00:24.528Z,22.70
2022-10-23T13:04:01.139Z,22.70
2022-10-23T13:06:46.061Z,22.80
2022-10-23T13:13:08.790Z,22.60
2022-10-23T13:16:02.670Z,22.10
2022-10-23T13:19:34.695Z,21.90
2022-10-23T13:23:07.766Z,21.70
2022-10-23T13:26:29.320Z,21.70
2022-10-23T13:29:43.924Z,21.50
2022-10-23T13:32:25.690Z,21.40
2022-10-23T13:35:21.869Z,21.20
2022-10-23T13:38:43.407Z,21.20
2022-10-23T13:41:26.343Z,21.10
2022-10-23T13:44:04.658Z,21.00
2022-10-23T13:46:38.627Z,20.80
2022-10-23T13:49:16.704Z,20.80
2022-10-23T13:51:53.399Z,20.70
2022-10-23T13:57:01.736Z,20.80
2022-10-23T13:59:36.717Z,20.80
2022-10-23T14:02:23.177Z,20.70
2022-10-23T14:05:12.103Z,20.80
2022-10-23T14:11:37.026Z,20.80
2022-10-23T14:14:59.262Z,20.80
2022-10-23T14:18:00.796Z,20.70
2022-10-23T14:20:52.014Z,20.70
2022-10-23T14:23:45.351Z,20.60
2022-10-23T14:27:13.107Z,20.60
2022-10-23T14:30:21.818Z,20.70
2022-10-23T14:33:47.877Z,20.60
2022-10-23T14:37:09.576Z,20.60
2022-10-23T14:40:45.807Z,20.50
2022-10-23T14:43:33.327Z,20.50
2022-10-23T14:46:19.232Z,20.50
2022-10-23T14:49:28.612Z,20.50
2022-10-23T14:52:51.734Z,20.40
2022-10-23T15:03:53.377Z,20.20
2022-10-23T15:06:37.482Z,20.10
2022-10-23T15:09:14.962Z,19.90
2022-10-23T15:11:43.986Z,19.90
2022-10-23T15:14:17.465Z,19.20
2022-10-23T15:16:46.867Z,18.50
2022-10-23T15:19:21.232Z,18.00
2022-10-23T15:21:59.041Z,17.70
2022-10-23T15:24:30.514Z,17.50
2022-10-23T15:27:00.484Z,17.40
2022-10-23T15:29:32.370Z,17.30
2022-10-23T15:32:06.113Z,17.10
2022-10-23T15:34:49.889Z,17.10
2022-10-23T15:37:21.063Z,17.10
2022-10-23T15:39:50.227Z,17.10
2022-10-23T15:42:25.436Z,17.00
2022-10-23T15:45:03.315Z,17.10
2022-10-23T15:47:32.801Z,17.10
2022-10-23T15:50:02.644Z,17.10
2022-10-23T15:52:35.750Z,17.00
2022-10-23T15:55:08.397Z,17.00
2022-10-23T15:58:09.962Z,16.90
2022-10-23T16:00:48.501Z,16.70
2022-10-23T16:03:21.323Z,16.60
2022-10-23T16:05:58.211Z,16.60
2022-10-23T16:08:37.535Z,16.60
2022-10-23T16:11:19.110Z,16.50
2022-10-23T16:13:51.104Z,16.50
2022-10-23T16:16:26.378Z,16.50
2022-10-23T16:18:58.922Z,16.50
2022-10-23T16:21:46.006Z,16.50
2022-10-23T16:24:34.304Z,16.40
2022-10-23T16:34:36.958Z,16.40
2022-10-23T16:37:21.400Z,16.40
2022-10-23T16:40:07.986Z,16.40
2022-10-23T16:43:06.183Z,16.40
2022-10-23T16:45:44.130Z,16.40
2022-10-23T16:48:28.855Z,16.50
2022-10-23T16:51:09.536Z,16.40
2022-10-23T16:54:02.769Z,16.40
2022-10-23T16:57:43.431Z,16.40
2022-10-23T17:00:45.351Z,16.40
2022-10-23T17:22:10.911Z,16.20
2022-10-23T17:24:39.782Z,16.10
2022-10-23T17:27:10.713Z,16.10
2022-10-23T17:29:40.370Z,16.20
2022-10-23T17:32:09.104Z,16.20
2022-10-23T17:34:38.073Z,16.20
2022-10-23T17:37:06.619Z,16.20
2022-10-23T17:39:38.494Z,16.20
2022-10-23T17:42:07.216Z,16.20
2022-10-23T17:44:35.731Z,16.20
2022-10-23T17:47:04.810Z,16.20
2022-10-23T17:49:33.449Z,16.10
2022-10-23T17:52:02.226Z,16.10
2022-10-23T17:54:30.701Z,16.10
2022-10-23T17:57:03.669Z,16.10
2022-10-23T17:59:32.766Z,16.10
2022-10-23T18:02:01.421Z,16.10
2022-10-23T18:04:30.188Z,16.10
2022-10-23T18:06:58.574Z,16.10
2022-10-23T18:09:29.594Z,16.10
2022-10-23T18:12:00.697Z,16.20
2022-10-23T18:14:29.653Z,16.10
2022-10-23T18:16:58.338Z,16.20
2022-10-23T18:19:27.026Z,16.20
2022-10-23T18:21:58.224Z,16.10
2022-10-23T18:24:26.962Z,16.00
2022-10-23T18:26:58.614Z,16.00
2022-10-23T18:29:28.969Z,16.10
2022-10-23T18:31:57.321Z,16.00
2022-10-23T18:34:26.813Z,16.00
2022-10-23T18:36:58.301Z,16.00
2022-10-23T18:39:27.851Z,16.10
2022-10-23T18:42:04.459Z,16.10
2022-10-23T18:44:34.415Z,16.20
2022-10-23T18:47:03.222Z,16.20
2022-10-23T18:49:31.655Z,16.10
2022-10-23T18:52:00.731Z,16.20
2022-10-23T18:54:29.845Z,16.20
2022-10-23T18:56:58.337Z,16.20
2022-10-23T18:59:27.227Z,16.30
2022-10-23T19:01:57.531Z,16.30
2022-10-23T19:04:26.099Z,16.30
2022-10-23T19:06:54.720Z,16.40
2022-10-23T19:09:23.391Z,16.40
2022-10-23T19:11:52.031Z,16.50
2022-10-23T19:14:26.913Z,16.50
2022-10-23T19:17:01.131Z,16.50
2022-10-23T19:19:33.878Z,16.50
2022-10-23T19:22:05.161Z,16.40
2022-10-23T19:24:40.831Z,16.40
2022-10-23T19:27:10.113Z,16.40
2022-10-23T19:29:42.797Z,16.40
2022-10-23T19:32:28.095Z,16.40
2022-10-23T19:34:56.719Z,16.40
2022-10-23T19:37:26.285Z,16.30
2022-10-23T19:39:54.671Z,16.30
2022-10-23T19:42:23.652Z,16.40
2022-10-23T19:44:52.276Z,16.40
2022-10-23T19:47:21.673Z,16.50
2022-10-23T19:49:53.047Z,16.50
2022-10-23T19:52:22.259Z,16.50
2022-10-23T19:54:50.926Z,16.50
2022-10-23T19:57:23.306Z,16.60
2022-10-23T19:59:52.785Z,16.50
2022-10-23T20:02:22.517Z,16.50
2022-10-23T20:04:52.881Z,16.50
2022-10-23T20:07:21.626Z,16.40
2022-10-23T20:09:50.136Z,16.40
2022-10-23T20:12:18.486Z,16.40
2022-10-23T20:14:46.953Z,16.40
2022-10-23T20:17:16.413Z,16.40
2022-10-23T20:19:44.995Z,16.50
2022-10-23T20:22:19.084Z,16.50
2022-10-23T20:24:47.964Z,16.50
2022-10-23T20:27:18.731Z,16.50
2022-10-23T20:29:47.488Z,16.60
2022-10-23T20:32:17.196Z,16.60
2022-10-23T20:34:47.439Z,16.60
2022-10-23T20:37:17.116Z,16.40
2022-10-23T20:39:45.493Z,16.20
2022-10-23T20:42:13.919Z,16.10
2022-10-23T20:44:43.188Z,16.00
2022-10-23T20:47:11.820Z,16.00
2022-10-23T20:49:43.030Z,15.90
2022-10-23T20:52:11.342Z,15.80
2022-10-23T20:54:45.012Z,15.80
2022-10-23T20:57:15.728Z,15.80
2022-10-23T20:59:46.302Z,15.70
2022-10-23T21:02:17.965Z,15.70
2022-10-23T21:04:52.386Z,15.60
2022-10-23T21:07:21.290Z,15.60
2022-10-23T21:09:56.452Z,15.50
2022-10-23T21:12:25.363Z,15.40
2022-10-23T21:14:54.682Z,15.40
2022-10-23T21:17:24.275Z,15.30
2022-10-23T21:19:55.101Z,15.20
2022-10-23T21:22:26.108Z,15.20
2022-10-23T21:24:58.655Z,15.10
2022-10-23T21:27:29.217Z,15.00
2022-10-23T21:29:57.531Z,15.00
2022-10-23T21:32:25.927Z,15.00
2022-10-23T21:34:55.307Z,15.00
2022-10-23T21:37:25.366Z,15.00
2022-10-23T21:39:55.192Z,15.00
2022-10-23T21:42:25.849Z,15.00
2022-10-23T21:44:55.887Z,15.00
2022-10-23T21:47:24.397Z,14.90
2022-10-23T21:49:52.820Z,14.90
2022-10-23T21:52:21.420Z,14.90
2022-10-23T21:54:53.335Z,14.80
2022-10-23T21:57:23.272Z,14.90
2022-10-23T21:59:51.666Z,15.00
2022-10-23T22:02:20.604Z,15.00
2022-10-23T22:04:49.135Z,15.00
2022-10-23T22:07:17.967Z,15.00
2022-10-23T22:09:49.058Z,15.00
2022-10-23T22:12:17.440Z,15.00
2022-10-23T22:14:47.581Z,15.00
2022-10-23T22:17:16.135Z,15.10
2022-10-23T22:19:45.330Z,15.10
2022-10-23T22:22:14.085Z,15.10
2022-10-23T22:24:42.475Z,15.10
2022-10-23T22:27:12.984Z,15.10
2022-10-23T22:29:41.594Z,15.20
2022-10-23T22:32:11.744Z,15.20
2022-10-23T22:34:55.393Z,15.20
2022-10-23T22:37:26.663Z,15.20
2022-10-23T22:39:55.011Z,15.20
2022-10-23T22:42:23.236Z,15.20
2022-10-23T22:44:51.528Z,15.20
2022-10-23T22:47:21.787Z,15.20
2022-10-23T22:49:50.118Z,15.20
2022-10-23T22:52:18.814Z,15.20
2022-10-23T22:54:48.851Z,15.20
2022-10-23T22:57:17.291Z,15.20
2022-10-23T22:59:45.924Z,15.20
2022-10-23T23:02:14.367Z,15.20
2022-10-23T23:04:44.899Z,15.20
2022-10-23T23:07:14.655Z,15.20
2022-10-23T23:09:44.694Z,15.20
2022-10-23T23:12:14.737Z,15.20
2022-10-23T23:14:43.583Z,15.20
2022-10-23T23:17:12.286Z,15.20
2022-10-23T23:19:40.711Z,15.20
2022-10-23T23:22:11.292Z,15.20
2022-10-23T23:24:39.809Z,15.30
2022-10-23T23:27:08.167Z,15.30
2022-10-23T23:29:37.602Z,15.40
2022-10-23T23:32:07.337Z,15.40
2022-10-23T23:34:38.647Z,15.50
2022-10-23T23:37:08.586Z,15.50
2022-10-23T23:39:39.028Z,15.60
2022-10-23T23:42:07.947Z,15.60
2022-10-23T23:44:42.020Z,15.50
2022-10-23T23:47:19.307Z,15.50
2022-10-23T23:49:52.290Z,15.60
2022-10-23T23:52:20.953Z,15.60
2022-10-23T23:54:50.949Z,15.60
2022-10-23T23:57:19.368Z,15.60
2022-10-23T23:59:47.797Z,15.70
